Chengdu Shuangliu International Airport
ZUUU : now visible

Airfield :











YOU CAN JOIN US ON...

 
LOGIN :

Register | Disclaimer

   EN    FR    IT 

 









Legend :    VFR   Marginal VFR   IFR   Intensive IFR   Very Intensive IFR
Visi :
Ceiling :
>= 8 km
>= 3000ft
5 to 8 km
1000 to 3000 ft
1500m to 5 km
500 to 1000 ft
800 to 1500m
200 to 500 ft
< 800m
< 200 ft
Symbols :   Thunderstorms  Fog  Heavy snow  Heavy precipitations  Wind > 20 kt







- Airport Elevation : 1625 ft
- IATA code : CTU


ZUUU - Chengdu Shuangliu International

CURRENT METAR :
  • 191400Z 35002MPS 310V030 9999 BKN043 07/04 Q1019 NOSIG

EXPIRED METARs :
  • 191300Z VRB01MPS 9999 BKN043 08/04 Q1019 NOSIG
  • 191200Z VRB01MPS 9999 FEW026 BKN050 08/04 Q1018 NOSIG

TAF TAF ZUUU
Valid from the 19 at 12:00 until the 20 at 12:00 UTC


190804Z 1912/2012 02003MPS 5000 BR SCT040 TX11/2007Z TN05/1922Z
ZPKM FIR / Asia



MET'MAP, your aeronautical weather chart ! - Copyright ORBIFLY December 2007 - Disclaimer

ORBIFLY MET'MAP TEAM :

Programming & Development : Alexandra Zaïnal
Concept & Development : Baudouin d'Aumeries
Co-Development & Prog : Marc-Olivier Méhu
Technical & hardware support : Manuel Goepfert

Contact : metmap@orbifly.com




SOURCES & CREDITS :

   NOAA       Earth
Advisory